Vienna, Austria
Current Conditions -  °F | °C
As of 7:20 AM on Saturday 25 Oct 2014 (Local Time) from LOWW Reporting Station
Few Clouds Few Clouds  
Wind Chill: 37°   Ceiling: Unl
Heat Index: 37°   Visibility: 4mi
Dew Point: 36°   Wind: 1mph
Humidity: 93%   Direction: NA
Pressure: 30.21"   Gusts: NA
Location:  48.22°N, 16.37°E
Report Text: LOWW 250520Z VRB01KT 7000 FEW060 03/02 Q1023 TEMPO 4500 BR
Loading
Personal Weather Stations






























Interactive Weather Map
Tropical Storm Tracking
New forecast layout! Learn more

10-Day Weather Forecast

Advertisements
Track Severe Weather on mobile